sensor_id;sensor_type;location;lat;lon;timestamp;P1;durP1;ratioP1;P2;durP2;ratioP2
12896;SDS011;6516;35.028;32.372;2022-07-29T00:01:18;15.40;;;13.80;;
12896;SDS011;6516;35.028;32.372;2022-07-29T00:03:46;15.20;;;13.68;;
12896;SDS011;6516;35.028;32.372;2022-07-29T00:06:14;14.27;;;12.77;;
12896;SDS011;6516;35.028;32.372;2022-07-29T00:08:42;12.68;;;10.98;;
12896;SDS011;6516;35.028;32.372;2022-07-29T00:11:10;12.15;;;10.82;;
12896;SDS011;6516;35.028;32.372;2022-07-29T00:13:38;10.33;;;9.20;;
12896;SDS011;6516;35.028;32.372;2022-07-29T00:16:07;10.57;;;8.70;;
12896;SDS011;6516;35.028;32.372;2022-07-29T00:18:36;10.07;;;8.10;;
12896;SDS011;6516;35.028;32.372;2022-07-29T00:21:04;9.85;;;8.77;;
12896;SDS011;6516;35.028;32.372;2022-07-29T00:23:32;12.88;;;7.40;;
12896;SDS011;6516;35.028;32.372;2022-07-29T00:26:00;10.70;;;7.57;;
12896;SDS011;6516;35.028;32.372;2022-07-29T00:28:28;9.98;;;6.50;;
12896;SDS011;6516;35.028;32.372;2022-07-29T00:30:56;9.27;;;6.57;;
12896;SDS011;6516;35.028;32.372;2022-07-29T00:33:25;8.75;;;6.60;;
12896;SDS011;6516;35.028;32.372;2022-07-29T00:35:53;12.15;;;6.80;;
12896;SDS011;6516;35.028;32.372;2022-07-29T00:38:20;9.80;;;6.67;;
12896;SDS011;6516;35.028;32.372;2022-07-29T00:40:48;10.20;;;6.32;;
12896;SDS011;6516;35.028;32.372;2022-07-29T00:43:16;12.70;;;6.75;;
12896;SDS011;6516;35.028;32.372;2022-07-29T00:45:44;9.65;;;7.00;;
12896;SDS011;6516;35.028;32.372;2022-07-29T00:48:12;10.77;;;8.23;;
12896;SDS011;6516;35.028;32.372;2022-07-29T00:50:42;13.40;;;7.83;;
12896;SDS011;6516;35.028;32.372;2022-07-29T00:53:10;13.07;;;8.52;;
12896;SDS011;6516;35.028;32.372;2022-07-29T00:55:39;13.82;;;7.82;;
12896;SDS011;6516;35.028;32.372;2022-07-29T00:58:07;11.90;;;8.18;;
12896;SDS011;6516;35.028;32.372;2022-07-29T01:00:36;12.05;;;7.63;;
12896;SDS011;6516;35.028;32.372;2022-07-29T01:03:05;13.17;;;8.37;;
12896;SDS011;6516;35.028;32.372;2022-07-29T01:05:34;11.77;;;8.27;;
12896;SDS011;6516;35.028;32.372;2022-07-29T01:08:04;12.68;;;8.60;;
12896;SDS011;6516;35.028;32.372;2022-07-29T01:10:33;14.35;;;8.80;;
12896;SDS011;6516;35.028;32.372;2022-07-29T01:13:05;11.95;;;8.88;;
12896;SDS011;6516;35.028;32.372;2022-07-29T01:15:34;10.83;;;8.70;;
12896;SDS011;6516;35.028;32.372;2022-07-29T01:18:11;10.70;;;9.02;;
12896;SDS011;6516;35.028;32.372;2022-07-29T01:20:51;12.60;;;9.43;;
12896;SDS011;6516;35.028;32.372;2022-07-29T01:23:57;16.23;;;10.13;;
12896;SDS011;6516;35.028;32.372;2022-07-29T01:26:42;15.02;;;10.43;;
12896;SDS011;6516;35.028;32.372;2022-07-29T01:29:22;14.43;;;11.00;;
12896;SDS011;6516;35.028;32.372;2022-07-29T01:31:54;12.07;;;9.68;;
12896;SDS011;6516;35.028;32.372;2022-07-29T01:34:30;12.15;;;9.27;;
12896;SDS011;6516;35.028;32.372;2022-07-29T01:37:07;13.70;;;10.48;;
12896;SDS011;6516;35.028;32.372;2022-07-29T01:39:42;10.85;;;9.65;;
12896;SDS011;6516;35.028;32.372;2022-07-29T01:42:15;17.83;;;11.13;;
12896;SDS011;6516;35.028;32.372;2022-07-29T01:44:56;14.82;;;11.15;;
12896;SDS011;6516;35.028;32.372;2022-07-29T01:47:29;13.65;;;11.10;;
12896;SDS011;6516;35.028;32.372;2022-07-29T01:50:02;12.13;;;10.45;;
12896;SDS011;6516;35.028;32.372;2022-07-29T01:52:38;14.80;;;10.80;;
12896;SDS011;6516;35.028;32.372;2022-07-29T01:55:13;12.40;;;11.10;;
12896;SDS011;6516;35.028;32.372;2022-07-29T01:57:44;11.73;;;9.73;;
12896;SDS011;6516;35.028;32.372;2022-07-29T02:00:16;13.02;;;10.68;;
12896;SDS011;6516;35.028;32.372;2022-07-29T02:02:45;11.30;;;10.10;;
12896;SDS011;6516;35.028;32.372;2022-07-29T02:05:15;14.10;;;11.13;;
12896;SDS011;6516;35.028;32.372;2022-07-29T02:07:46;16.53;;;11.70;;
12896;SDS011;6516;35.028;32.372;2022-07-29T02:10:15;12.88;;;11.50;;
12896;SDS011;6516;35.028;32.372;2022-07-29T02:12:49;13.10;;;11.20;;
12896;SDS011;6516;35.028;32.372;2022-07-29T02:15:20;12.82;;;11.50;;
12896;SDS011;6516;35.028;32.372;2022-07-29T02:17:53;13.02;;;11.65;;
12896;SDS011;6516;35.028;32.372;2022-07-29T02:20:25;12.77;;;11.47;;
12896;SDS011;6516;35.028;32.372;2022-07-29T02:22:55;13.95;;;12.45;;
12896;SDS011;6516;35.028;32.372;2022-07-29T02:25:24;15.15;;;11.73;;
12896;SDS011;6516;35.028;32.372;2022-07-29T02:27:53;13.25;;;11.20;;
12896;SDS011;6516;35.028;32.372;2022-07-29T02:30:24;12.65;;;11.00;;
12896;SDS011;6516;35.028;32.372;2022-07-29T02:32:54;15.33;;;11.83;;
12896;SDS011;6516;35.028;32.372;2022-07-29T02:35:23;14.70;;;11.93;;
12896;SDS011;6516;35.028;32.372;2022-07-29T02:37:52;15.00;;;11.85;;
12896;SDS011;6516;35.028;32.372;2022-07-29T02:40:38;14.55;;;11.85;;
12896;SDS011;6516;35.028;32.372;2022-07-29T02:43:09;14.27;;;11.85;;
12896;SDS011;6516;35.028;32.372;2022-07-29T02:45:39;14.93;;;11.23;;
12896;SDS011;6516;35.028;32.372;2022-07-29T02:48:09;14.35;;;10.63;;
12896;SDS011;6516;35.028;32.372;2022-07-29T02:50:42;15.80;;;11.18;;
12896;SDS011;6516;35.028;32.372;2022-07-29T02:53:16;14.20;;;11.52;;
12896;SDS011;6516;35.028;32.372;2022-07-29T02:55:51;12.27;;;11.07;;
12896;SDS011;6516;35.028;32.372;2022-07-29T02:58:24;15.07;;;11.97;;
12896;SDS011;6516;35.028;32.372;2022-07-29T03:00:59;16.75;;;13.23;;
12896;SDS011;6516;35.028;32.372;2022-07-29T03:03:32;18.80;;;13.27;;
12896;SDS011;6516;35.028;32.372;2022-07-29T03:06:03;16.58;;;13.68;;
12896;SDS011;6516;35.028;32.372;2022-07-29T03:08:32;16.83;;;14.65;;
12896;SDS011;6516;35.028;32.372;2022-07-29T03:11:01;16.70;;;14.97;;
12896;SDS011;6516;35.028;32.372;2022-07-29T03:13:31;16.75;;;15.05;;
12896;SDS011;6516;35.028;32.372;2022-07-29T03:16:01;17.55;;;15.52;;
12896;SDS011;6516;35.028;32.372;2022-07-29T03:18:30;16.67;;;14.85;;
12896;SDS011;6516;35.028;32.372;2022-07-29T03:20:58;15.90;;;14.05;;
12896;SDS011;6516;35.028;32.372;2022-07-29T03:23:26;16.13;;;13.33;;
12896;SDS011;6516;35.028;32.372;2022-07-29T03:25:54;15.50;;;13.93;;
12896;SDS011;6516;35.028;32.372;2022-07-29T03:28:22;15.95;;;13.95;;
12896;SDS011;6516;35.028;32.372;2022-07-29T03:30:52;16.15;;;14.52;;
12896;SDS011;6516;35.028;32.372;2022-07-29T03:33:22;15.40;;;13.90;;
12896;SDS011;6516;35.028;32.372;2022-07-29T03:35:50;18.37;;;13.73;;
12896;SDS011;6516;35.028;32.372;2022-07-29T03:38:17;19.27;;;14.20;;
12896;SDS011;6516;35.028;32.372;2022-07-29T03:40:48;17.98;;;14.43;;
12896;SDS011;6516;35.028;32.372;2022-07-29T03:43:21;16.38;;;14.02;;
12896;SDS011;6516;35.028;32.372;2022-07-29T03:45:53;15.35;;;13.85;;
12896;SDS011;6516;35.028;32.372;2022-07-29T03:48:26;17.63;;;15.87;;
12896;SDS011;6516;35.028;32.372;2022-07-29T03:50:55;20.90;;;15.95;;
12896;SDS011;6516;35.028;32.372;2022-07-29T03:53:23;17.38;;;15.60;;
12896;SDS011;6516;35.028;32.372;2022-07-29T03:55:52;19.02;;;17.23;;
12896;SDS011;6516;35.028;32.372;2022-07-29T03:58:26;18.80;;;16.95;;
12896;SDS011;6516;35.028;32.372;2022-07-29T04:00:54;19.53;;;16.73;;
12896;SDS011;6516;35.028;32.372;2022-07-29T04:03:23;21.38;;;17.27;;
12896;SDS011;6516;35.028;32.372;2022-07-29T04:05:59;18.27;;;16.23;;
12896;SDS011;6516;35.028;32.372;2022-07-29T04:08:30;19.88;;;17.98;;
12896;SDS011;6516;35.028;32.372;2022-07-29T04:10:59;18.63;;;16.83;;
12896;SDS011;6516;35.028;32.372;2022-07-29T04:13:27;18.33;;;16.33;;
12896;SDS011;6516;35.028;32.372;2022-07-29T04:15:54;18.23;;;16.42;;
12896;SDS011;6516;35.028;32.372;2022-07-29T04:18:22;19.17;;;16.85;;
12896;SDS011;6516;35.028;32.372;2022-07-29T04:20:50;18.77;;;16.85;;
12896;SDS011;6516;35.028;32.372;2022-07-29T04:23:20;18.23;;;16.45;;
12896;SDS011;6516;35.028;32.372;2022-07-29T04:25:48;18.10;;;16.40;;
12896;SDS011;6516;35.028;32.372;2022-07-29T04:28:15;17.38;;;15.68;;
12896;SDS011;6516;35.028;32.372;2022-07-29T04:30:43;16.83;;;15.13;;
12896;SDS011;6516;35.028;32.372;2022-07-29T04:33:11;16.70;;;15.10;;
12896;SDS011;6516;35.028;32.372;2022-07-29T04:35:39;16.70;;;15.10;;
12896;SDS011;6516;35.028;32.372;2022-07-29T04:38:07;16.80;;;13.73;;
12896;SDS011;6516;35.028;32.372;2022-07-29T04:40:36;13.95;;;12.50;;
12896;SDS011;6516;35.028;32.372;2022-07-29T04:43:04;15.27;;;12.80;;
12896;SDS011;6516;35.028;32.372;2022-07-29T04:45:32;15.73;;;12.30;;
12896;SDS011;6516;35.028;32.372;2022-07-29T04:48:00;14.57;;;13.07;;
12896;SDS011;6516;35.028;32.372;2022-07-29T04:50:28;14.10;;;12.73;;
12896;SDS011;6516;35.028;32.372;2022-07-29T04:52:56;14.48;;;13.00;;
12896;SDS011;6516;35.028;32.372;2022-07-29T04:55:23;15.10;;;12.30;;
12896;SDS011;6516;35.028;32.372;2022-07-29T04:57:53;14.85;;;12.13;;
12896;SDS011;6516;35.028;32.372;2022-07-29T05:00:21;12.13;;;10.85;;
12896;SDS011;6516;35.028;32.372;2022-07-29T05:02:49;12.73;;;11.37;;
12896;SDS011;6516;35.028;32.372;2022-07-29T05:05:17;13.52;;;10.40;;
12896;SDS011;6516;35.028;32.372;2022-07-29T05:07:45;13.57;;;10.10;;
12896;SDS011;6516;35.028;32.372;2022-07-29T05:10:13;13.80;;;10.18;;
12896;SDS011;6516;35.028;32.372;2022-07-29T05:12:41;11.68;;;9.82;;
12896;SDS011;6516;35.028;32.372;2022-07-29T05:15:10;11.87;;;9.40;;
12896;SDS011;6516;35.028;32.372;2022-07-29T05:17:38;11.43;;;9.20;;
12896;SDS011;6516;35.028;32.372;2022-07-29T05:20:07;12.32;;;8.93;;
12896;SDS011;6516;35.028;32.372;2022-07-29T05:22:36;11.30;;;9.50;;
12896;SDS011;6516;35.028;32.372;2022-07-29T05:25:04;10.60;;;8.77;;
12896;SDS011;6516;35.028;32.372;2022-07-29T05:27:34;13.77;;;9.00;;
12896;SDS011;6516;35.028;32.372;2022-07-29T05:30:03;12.48;;;8.75;;
12896;SDS011;6516;35.028;32.372;2022-07-29T05:32:34;12.95;;;8.15;;
12896;SDS011;6516;35.028;32.372;2022-07-29T05:35:02;9.77;;;8.00;;
12896;SDS011;6516;35.028;32.372;2022-07-29T05:37:30;10.48;;;7.55;;
12896;SDS011;6516;35.028;32.372;2022-07-29T05:39:58;12.60;;;7.40;;
12896;SDS011;6516;35.028;32.372;2022-07-29T05:42:26;10.38;;;6.57;;
12896;SDS011;6516;35.028;32.372;2022-07-29T05:44:54;7.82;;;6.53;;
12896;SDS011;6516;35.028;32.372;2022-07-29T05:47:22;9.13;;;6.20;;
12896;SDS011;6516;35.028;32.372;2022-07-29T05:49:51;9.27;;;6.95;;
12896;SDS011;6516;35.028;32.372;2022-07-29T05:52:19;9.23;;;6.57;;
12896;SDS011;6516;35.028;32.372;2022-07-29T05:54:48;11.10;;;7.13;;
12896;SDS011;6516;35.028;32.372;2022-07-29T05:57:16;10.50;;;7.13;;
12896;SDS011;6516;35.028;32.372;2022-07-29T05:59:45;12.90;;;7.15;;
12896;SDS011;6516;35.028;32.372;2022-07-29T06:02:13;10.77;;;6.93;;
12896;SDS011;6516;35.028;32.372;2022-07-29T06:04:42;9.43;;;6.70;;
12896;SDS011;6516;35.028;32.372;2022-07-29T06:07:12;10.57;;;6.53;;
12896;SDS011;6516;35.028;32.372;2022-07-29T06:09:39;10.40;;;6.82;;
12896;SDS011;6516;35.028;32.372;2022-07-29T06:12:07;10.68;;;6.53;;
12896;SDS011;6516;35.028;32.372;2022-07-29T06:14:35;9.93;;;6.82;;
12896;SDS011;6516;35.028;32.372;2022-07-29T06:17:04;8.83;;;6.47;;
12896;SDS011;6516;35.028;32.372;2022-07-29T06:19:33;7.93;;;6.60;;
12896;SDS011;6516;35.028;32.372;2022-07-29T06:22:01;8.80;;;6.72;;
12896;SDS011;6516;35.028;32.372;2022-07-29T06:24:32;7.57;;;6.60;;
12896;SDS011;6516;35.028;32.372;2022-07-29T06:26:59;8.20;;;6.90;;
12896;SDS011;6516;35.028;32.372;2022-07-29T06:29:27;10.23;;;6.70;;
12896;SDS011;6516;35.028;32.372;2022-07-29T06:31:56;9.48;;;7.00;;
12896;SDS011;6516;35.028;32.372;2022-07-29T06:34:23;9.40;;;6.85;;
12896;SDS011;6516;35.028;32.372;2022-07-29T06:36:51;10.10;;;6.78;;
12896;SDS011;6516;35.028;32.372;2022-07-29T06:39:19;8.43;;;6.72;;
12896;SDS011;6516;35.028;32.372;2022-07-29T06:41:49;10.20;;;7.10;;
12896;SDS011;6516;35.028;32.372;2022-07-29T06:44:17;11.15;;;6.90;;
12896;SDS011;6516;35.028;32.372;2022-07-29T06:46:45;10.98;;;6.70;;
12896;SDS011;6516;35.028;32.372;2022-07-29T06:49:15;9.73;;;6.80;;
12896;SDS011;6516;35.028;32.372;2022-07-29T06:51:42;11.60;;;6.80;;
12896;SDS011;6516;35.028;32.372;2022-07-29T06:54:10;8.63;;;6.50;;
12896;SDS011;6516;35.028;32.372;2022-07-29T06:56:38;10.52;;;6.90;;
12896;SDS011;6516;35.028;32.372;2022-07-29T06:59:08;10.95;;;7.03;;
12896;SDS011;6516;35.028;32.372;2022-07-29T07:01:38;10.20;;;6.90;;
12896;SDS011;6516;35.028;32.372;2022-07-29T07:04:09;9.48;;;7.22;;
12896;SDS011;6516;35.028;32.372;2022-07-29T07:06:38;9.93;;;6.90;;
12896;SDS011;6516;35.028;32.372;2022-07-29T07:09:06;9.38;;;7.10;;
12896;SDS011;6516;35.028;32.372;2022-07-29T07:11:34;10.32;;;6.55;;
12896;SDS011;6516;35.028;32.372;2022-07-29T07:14:02;8.88;;;6.50;;
12896;SDS011;6516;35.028;32.372;2022-07-29T07:16:31;11.07;;;7.30;;
12896;SDS011;6516;35.028;32.372;2022-07-29T07:18:59;10.13;;;7.07;;
12896;SDS011;6516;35.028;32.372;2022-07-29T07:21:27;9.02;;;7.32;;
12896;SDS011;6516;35.028;32.372;2022-07-29T07:23:55;8.95;;;6.82;;
12896;SDS011;6516;35.028;32.372;2022-07-29T07:26:24;12.07;;;6.95;;
12896;SDS011;6516;35.028;32.372;2022-07-29T07:28:52;11.68;;;7.00;;
12896;SDS011;6516;35.028;32.372;2022-07-29T07:31:20;9.93;;;7.27;;
12896;SDS011;6516;35.028;32.372;2022-07-29T07:33:49;8.43;;;6.80;;
12896;SDS011;6516;35.028;32.372;2022-07-29T07:36:18;10.15;;;7.00;;
12896;SDS011;6516;35.028;32.372;2022-07-29T07:38:46;9.50;;;6.80;;
12896;SDS011;6516;35.028;32.372;2022-07-29T07:41:14;9.65;;;6.45;;
12896;SDS011;6516;35.028;32.372;2022-07-29T07:43:42;9.00;;;6.57;;
12896;SDS011;6516;35.028;32.372;2022-07-29T07:46:10;9.45;;;7.28;;
12896;SDS011;6516;35.028;32.372;2022-07-29T07:48:38;10.05;;;6.70;;
12896;SDS011;6516;35.028;32.372;2022-07-29T07:51:07;8.40;;;6.80;;
12896;SDS011;6516;35.028;32.372;2022-07-29T07:53:35;8.43;;;6.80;;
12896;SDS011;6516;35.028;32.372;2022-07-29T07:56:03;12.67;;;7.37;;
12896;SDS011;6516;35.028;32.372;2022-07-29T07:58:31;12.32;;;7.38;;
12896;SDS011;6516;35.028;32.372;2022-07-29T08:01:00;11.57;;;7.45;;
12896;SDS011;6516;35.028;32.372;2022-07-29T08:03:28;10.50;;;7.28;;
12896;SDS011;6516;35.028;32.372;2022-07-29T08:05:56;11.25;;;7.50;;
12896;SDS011;6516;35.028;32.372;2022-07-29T08:08:25;14.20;;;8.20;;
12896;SDS011;6516;35.028;32.372;2022-07-29T08:10:53;12.27;;;8.05;;
12896;SDS011;6516;35.028;32.372;2022-07-29T08:13:22;11.75;;;7.75;;
12896;SDS011;6516;35.028;32.372;2022-07-29T08:15:53;10.15;;;7.80;;
12896;SDS011;6516;35.028;32.372;2022-07-29T08:18:26;12.43;;;8.13;;
12896;SDS011;6516;35.028;32.372;2022-07-29T08:20:57;13.83;;;8.00;;
12896;SDS011;6516;35.028;32.372;2022-07-29T08:23:27;16.50;;;8.02;;
12896;SDS011;6516;35.028;32.372;2022-07-29T08:26:04;9.63;;;7.70;;
12896;SDS011;6516;35.028;32.372;2022-07-29T08:28:36;15.95;;;8.13;;
12896;SDS011;6516;35.028;32.372;2022-07-29T08:31:04;12.48;;;8.45;;
12896;SDS011;6516;35.028;32.372;2022-07-29T08:33:33;12.23;;;8.60;;
12896;SDS011;6516;35.028;32.372;2022-07-29T08:36:01;10.70;;;8.52;;
12896;SDS011;6516;35.028;32.372;2022-07-29T08:38:30;12.80;;;8.90;;
12896;SDS011;6516;35.028;32.372;2022-07-29T08:40:58;12.32;;;9.32;;
12896;SDS011;6516;35.028;32.372;2022-07-29T08:43:27;11.60;;;9.05;;
12896;SDS011;6516;35.028;32.372;2022-07-29T08:45:56;13.33;;;9.87;;
12896;SDS011;6516;35.028;32.372;2022-07-29T08:48:23;15.70;;;9.45;;
12896;SDS011;6516;35.028;32.372;2022-07-29T08:50:52;12.00;;;9.35;;
12896;SDS011;6516;35.028;32.372;2022-07-29T08:53:23;14.80;;;9.35;;
12896;SDS011;6516;35.028;32.372;2022-07-29T08:55:55;11.35;;;9.90;;
12896;SDS011;6516;35.028;32.372;2022-07-29T08:58:24;15.80;;;9.80;;
12896;SDS011;6516;35.028;32.372;2022-07-29T09:00:53;14.27;;;9.00;;
12896;SDS011;6516;35.028;32.372;2022-07-29T09:03:23;11.75;;;10.00;;
12896;SDS011;6516;35.028;32.372;2022-07-29T09:05:52;13.05;;;9.45;;
12896;SDS011;6516;35.028;32.372;2022-07-29T09:08:20;12.77;;;10.50;;
12896;SDS011;6516;35.028;32.372;2022-07-29T09:10:49;14.97;;;9.57;;
12896;SDS011;6516;35.028;32.372;2022-07-29T09:13:19;12.15;;;9.63;;
12896;SDS011;6516;35.028;32.372;2022-07-29T09:15:47;11.70;;;9.05;;
12896;SDS011;6516;35.028;32.372;2022-07-29T09:21:01;11.07;;;9.18;;
12896;SDS011;6516;35.028;32.372;2022-07-29T09:24:00;14.53;;;9.13;;
12896;SDS011;6516;35.028;32.372;2022-07-29T09:26:34;11.18;;;8.30;;
12896;SDS011;6516;35.028;32.372;2022-07-29T09:29:11;12.35;;;8.27;;
12896;SDS011;6516;35.028;32.372;2022-07-29T09:31:41;10.02;;;7.55;;
12896;SDS011;6516;35.028;32.372;2022-07-29T09:34:12;10.80;;;7.60;;
12896;SDS011;6516;35.028;32.372;2022-07-29T09:36:43;9.63;;;7.77;;
12896;SDS011;6516;35.028;32.372;2022-07-29T09:39:12;11.52;;;7.45;;
12896;SDS011;6516;35.028;32.372;2022-07-29T09:41:45;12.20;;;7.50;;
12896;SDS011;6516;35.028;32.372;2022-07-29T09:44:17;10.25;;;7.63;;
12896;SDS011;6516;35.028;32.372;2022-07-29T09:46:53;12.65;;;7.13;;
12896;SDS011;6516;35.028;32.372;2022-07-29T09:49:31;9.00;;;7.40;;
12896;SDS011;6516;35.028;32.372;2022-07-29T09:52:09;12.38;;;7.13;;
12896;SDS011;6516;35.028;32.372;2022-07-29T09:54:37;13.05;;;6.53;;
12896;SDS011;6516;35.028;32.372;2022-07-29T09:57:06;12.45;;;7.07;;
12896;SDS011;6516;35.028;32.372;2022-07-29T09:59:39;12.48;;;7.40;;
12896;SDS011;6516;35.028;32.372;2022-07-29T10:02:24;11.07;;;7.10;;
12896;SDS011;6516;35.028;32.372;2022-07-29T10:04:56;10.05;;;7.00;;
12896;SDS011;6516;35.028;32.372;2022-07-29T10:07:25;23.83;;;6.93;;
12896;SDS011;6516;35.028;32.372;2022-07-29T10:09:53;9.77;;;6.60;;
12896;SDS011;6516;35.028;32.372;2022-07-29T10:12:23;11.73;;;6.75;;
12896;SDS011;6516;35.028;32.372;2022-07-29T10:14:53;9.57;;;7.20;;
12896;SDS011;6516;35.028;32.372;2022-07-29T10:17:21;14.55;;;7.25;;
12896;SDS011;6516;35.028;32.372;2022-07-29T10:19:50;10.15;;;6.82;;
12896;SDS011;6516;35.028;32.372;2022-07-29T10:22:18;9.52;;;6.85;;
12896;SDS011;6516;35.028;32.372;2022-07-29T10:24:46;10.45;;;7.13;;
12896;SDS011;6516;35.028;32.372;2022-07-29T10:27:15;14.37;;;6.87;;
12896;SDS011;6516;35.028;32.372;2022-07-29T10:29:42;14.60;;;7.13;;
12896;SDS011;6516;35.028;32.372;2022-07-29T10:32:20;12.65;;;6.95;;
12896;SDS011;6516;35.028;32.372;2022-07-29T10:38:17;10.98;;;7.40;;
12896;SDS011;6516;35.028;32.372;2022-07-29T10:41:06;10.53;;;7.43;;
12896;SDS011;6516;35.028;32.372;2022-07-29T10:43:54;14.20;;;7.72;;
12896;SDS011;6516;35.028;32.372;2022-07-29T10:46:26;12.27;;;7.47;;
12896;SDS011;6516;35.028;32.372;2022-07-29T10:49:06;12.88;;;7.95;;
12896;SDS011;6516;35.028;32.372;2022-07-29T10:54:41;10.30;;;9.07;;
12896;SDS011;6516;35.028;32.372;2022-07-29T10:57:23;10.95;;;8.95;;
12896;SDS011;6516;35.028;32.372;2022-07-29T11:02:59;12.25;;;10.18;;
12896;SDS011;6516;35.028;32.372;2022-07-29T11:05:28;12.05;;;9.30;;
12896;SDS011;6516;35.028;32.372;2022-07-29T11:10:49;20.13;;;9.82;;
12896;SDS011;6516;35.028;32.372;2022-07-29T11:16:18;14.50;;;9.20;;
12896;SDS011;6516;35.028;32.372;2022-07-29T11:21:51;12.10;;;8.90;;
12896;SDS011;6516;35.028;32.372;2022-07-29T11:24:20;10.48;;;7.88;;
12896;SDS011;6516;35.028;32.372;2022-07-29T11:27:09;11.05;;;8.23;;
12896;SDS011;6516;35.028;32.372;2022-07-29T11:29:41;11.10;;;7.25;;
12896;SDS011;6516;35.028;32.372;2022-07-29T11:32:20;8.93;;;7.97;;
12896;SDS011;6516;35.028;32.372;2022-07-29T11:35:10;12.73;;;8.23;;
12896;SDS011;6516;35.028;32.372;2022-07-29T11:37:42;10.38;;;8.73;;
12896;SDS011;6516;35.028;32.372;2022-07-29T11:40:14;18.10;;;8.63;;
12896;SDS011;6516;35.028;32.372;2022-07-29T11:42:45;10.93;;;9.13;;
12896;SDS011;6516;35.028;32.372;2022-07-29T11:45:18;12.90;;;9.40;;
12896;SDS011;6516;35.028;32.372;2022-07-29T11:47:52;12.83;;;9.50;;
12896;SDS011;6516;35.028;32.372;2022-07-29T11:50:27;14.23;;;9.50;;
12896;SDS011;6516;35.028;32.372;2022-07-29T11:52:59;13.55;;;10.90;;
12896;SDS011;6516;35.028;32.372;2022-07-29T11:55:29;11.25;;;10.20;;
12896;SDS011;6516;35.028;32.372;2022-07-29T11:58:01;12.80;;;10.40;;
12896;SDS011;6516;35.028;32.372;2022-07-29T12:00:30;13.80;;;12.33;;
12896;SDS011;6516;35.028;32.372;2022-07-29T12:03:00;13.38;;;11.90;;
12896;SDS011;6516;35.028;32.372;2022-07-29T12:05:31;14.98;;;12.68;;
12896;SDS011;6516;35.028;32.372;2022-07-29T12:08:13;14.50;;;13.10;;
12896;SDS011;6516;35.028;32.372;2022-07-29T12:10:45;17.85;;;16.23;;
12896;SDS011;6516;35.028;32.372;2022-07-29T12:13:14;19.67;;;17.93;;
12896;SDS011;6516;35.028;32.372;2022-07-29T12:15:51;18.95;;;17.15;;
12896;SDS011;6516;35.028;32.372;2022-07-29T12:18:20;19.55;;;17.83;;
12896;SDS011;6516;35.028;32.372;2022-07-29T12:20:48;19.58;;;16.60;;
12896;SDS011;6516;35.028;32.372;2022-07-29T12:23:26;18.55;;;16.52;;
12896;SDS011;6516;35.028;32.372;2022-07-29T12:25:55;15.70;;;14.30;;
12896;SDS011;6516;35.028;32.372;2022-07-29T12:28:24;14.18;;;12.70;;
12896;SDS011;6516;35.028;32.372;2022-07-29T12:30:52;13.85;;;12.55;;
12896;SDS011;6516;35.028;32.372;2022-07-29T12:33:21;16.75;;;12.82;;
12896;SDS011;6516;35.028;32.372;2022-07-29T12:35:53;13.48;;;12.05;;
12896;SDS011;6516;35.028;32.372;2022-07-29T12:38:24;11.43;;;10.23;;
12896;SDS011;6516;35.028;32.372;2022-07-29T12:40:53;13.73;;;11.48;;
12896;SDS011;6516;35.028;32.372;2022-07-29T12:43:22;11.77;;;10.20;;
12896;SDS011;6516;35.028;32.372;2022-07-29T12:45:52;11.30;;;10.15;;
12896;SDS011;6516;35.028;32.372;2022-07-29T12:48:32;10.88;;;9.75;;
12896;SDS011;6516;35.028;32.372;2022-07-29T12:51:02;13.57;;;10.30;;
12896;SDS011;6516;35.028;32.372;2022-07-29T12:53:34;16.55;;;11.20;;
12896;SDS011;6516;35.028;32.372;2022-07-29T12:56:03;14.50;;;11.45;;
12896;SDS011;6516;35.028;32.372;2022-07-29T12:58:33;13.48;;;12.07;;
12896;SDS011;6516;35.028;32.372;2022-07-29T13:01:06;18.50;;;11.70;;
12896;SDS011;6516;35.028;32.372;2022-07-29T13:03:44;16.80;;;13.83;;
12896;SDS011;6516;35.028;32.372;2022-07-29T13:06:31;14.10;;;12.68;;
12896;SDS011;6516;35.028;32.372;2022-07-29T13:09:07;13.52;;;12.13;;
12896;SDS011;6516;35.028;32.372;2022-07-29T13:11:38;12.90;;;11.70;;
12896;SDS011;6516;35.028;32.372;2022-07-29T13:14:10;12.82;;;11.07;;
12896;SDS011;6516;35.028;32.372;2022-07-29T13:19:36;14.48;;;11.20;;
12896;SDS011;6516;35.028;32.372;2022-07-29T13:22:05;10.55;;;9.32;;
12896;SDS011;6516;35.028;32.372;2022-07-29T13:24:46;12.23;;;9.35;;
12896;SDS011;6516;35.028;32.372;2022-07-29T13:27:18;9.45;;;7.80;;
12896;SDS011;6516;35.028;32.372;2022-07-29T13:29:49;10.47;;;9.03;;
12896;SDS011;6516;35.028;32.372;2022-07-29T13:32:17;14.05;;;8.23;;
12896;SDS011;6516;35.028;32.372;2022-07-29T13:34:45;10.25;;;7.85;;
12896;SDS011;6516;35.028;32.372;2022-07-29T13:37:13;11.68;;;8.35;;
12896;SDS011;6516;35.028;32.372;2022-07-29T13:39:42;10.60;;;8.90;;
12896;SDS011;6516;35.028;32.372;2022-07-29T13:42:11;12.63;;;9.33;;
12896;SDS011;6516;35.028;32.372;2022-07-29T13:44:39;15.98;;;9.77;;
12896;SDS011;6516;35.028;32.372;2022-07-29T13:47:07;12.88;;;8.77;;
12896;SDS011;6516;35.028;32.372;2022-07-29T13:49:35;11.80;;;9.50;;
12896;SDS011;6516;35.028;32.372;2022-07-29T13:52:03;11.07;;;8.63;;
12896;SDS011;6516;35.028;32.372;2022-07-29T13:54:32;10.00;;;9.00;;
12896;SDS011;6516;35.028;32.372;2022-07-29T13:57:02;12.00;;;7.57;;
12896;SDS011;6516;35.028;32.372;2022-07-29T13:59:33;10.32;;;6.32;;
12896;SDS011;6516;35.028;32.372;2022-07-29T14:02:01;11.13;;;5.40;;
12896;SDS011;6516;35.028;32.372;2022-07-29T14:04:30;10.70;;;6.03;;
12896;SDS011;6516;35.028;32.372;2022-07-29T14:06:58;10.90;;;5.70;;
12896;SDS011;6516;35.028;32.372;2022-07-29T14:09:26;9.18;;;5.35;;
12896;SDS011;6516;35.028;32.372;2022-07-29T14:11:54;8.68;;;5.32;;
12896;SDS011;6516;35.028;32.372;2022-07-29T14:14:22;10.43;;;5.80;;
12896;SDS011;6516;35.028;32.372;2022-07-29T14:16:51;8.88;;;5.60;;
12896;SDS011;6516;35.028;32.372;2022-07-29T14:19:19;7.73;;;5.30;;
12896;SDS011;6516;35.028;32.372;2022-07-29T14:21:47;11.27;;;5.55;;
12896;SDS011;6516;35.028;32.372;2022-07-29T14:24:14;9.95;;;5.45;;
12896;SDS011;6516;35.028;32.372;2022-07-29T14:26:42;9.10;;;5.28;;
12896;SDS011;6516;35.028;32.372;2022-07-29T14:29:10;11.25;;;5.20;;
12896;SDS011;6516;35.028;32.372;2022-07-29T14:31:38;7.87;;;4.90;;
12896;SDS011;6516;35.028;32.372;2022-07-29T14:34:09;13.85;;;5.53;;
12896;SDS011;6516;35.028;32.372;2022-07-29T14:36:37;8.63;;;4.82;;
12896;SDS011;6516;35.028;32.372;2022-07-29T14:39:04;9.48;;;5.00;;
12896;SDS011;6516;35.028;32.372;2022-07-29T14:41:33;8.85;;;4.78;;
12896;SDS011;6516;35.028;32.372;2022-07-29T14:44:01;8.83;;;5.03;;
12896;SDS011;6516;35.028;32.372;2022-07-29T14:46:29;8.70;;;5.18;;
12896;SDS011;6516;35.028;32.372;2022-07-29T14:48:57;9.35;;;4.82;;
12896;SDS011;6516;35.028;32.372;2022-07-29T14:51:26;8.30;;;4.60;;
12896;SDS011;6516;35.028;32.372;2022-07-29T14:53:54;9.25;;;5.18;;
12896;SDS011;6516;35.028;32.372;2022-07-29T14:56:22;9.33;;;4.53;;
12896;SDS011;6516;35.028;32.372;2022-07-29T14:58:50;10.18;;;5.32;;
12896;SDS011;6516;35.028;32.372;2022-07-29T15:01:18;9.20;;;5.00;;
12896;SDS011;6516;35.028;32.372;2022-07-29T15:03:46;11.45;;;5.07;;
12896;SDS011;6516;35.028;32.372;2022-07-29T15:06:14;10.18;;;5.22;;
12896;SDS011;6516;35.028;32.372;2022-07-29T15:08:43;7.77;;;5.13;;
12896;SDS011;6516;35.028;32.372;2022-07-29T15:11:11;8.90;;;5.05;;
12896;SDS011;6516;35.028;32.372;2022-07-29T15:13:38;9.68;;;5.25;;
12896;SDS011;6516;35.028;32.372;2022-07-29T15:16:07;10.57;;;5.53;;